Time;durP1;ratioP1;P1;durP2;ratioP2;P2;SDS_P1;SDS_P2;PMS_P1;PMS_P2;Temp;Humidity;BMP_temperature;BMP_pressure;BME280_temperature;BME280_humidity;BME280_pressure;Samples;Min_cycle;Max_cycle;Signal;HPM_P1;HPM_P2
2023/04/01 00:02:06;;;;;;;6.18;5.40;;;9.00;99.90;;;;;;5019643;28;20224;-74
2023/04/01 00:04:33;;;;;;;5.30;4.85;;;9.00;99.90;;;;;;5018137;28;20049;-73
2023/04/01 00:07:00;;;;;;;5.43;5.13;;;9.00;99.90;;;;;;5012564;28;20045;-73
2023/04/01 00:09:26;;;;;;;5.60;5.20;;;9.00;99.90;;;;;;5015191;28;20068;-74
2023/04/01 00:11:55;;;;;;;6.75;6.20;;;9.00;99.90;;;;;;5018096;28;20052;-73
2023/04/01 00:14:22;;;;;;;5.95;5.55;;;9.00;99.90;;;;;;4998530;28;20071;-74
2023/04/01 00:16:49;;;;;;;6.40;6.00;;;9.00;99.90;;;;;;5010883;28;20269;-74
2023/04/01 00:19:15;;;;;;;5.80;5.40;;;9.00;99.90;;;;;;5016297;28;20480;-73
2023/04/01 00:21:42;;;;;;;5.57;5.32;;;9.00;99.90;;;;;;5008478;28;20451;-73
2023/04/01 00:24:09;;;;;;;6.20;5.60;;;9.00;99.90;;;;;;5012742;28;20433;-74
2023/04/01 00:26:36;;;;;;;6.38;5.90;;;9.00;99.90;;;;;;5017423;28;20045;-74
2023/04/01 00:29:02;;;;;;;6.25;5.90;;;9.00;99.90;;;;;;5018306;28;20049;-74
2023/04/01 00:31:29;;;;;;;6.78;5.40;;;9.00;99.90;;;;;;5014612;28;20037;-73
2023/04/01 00:33:57;;;;;;;6.30;6.00;;;9.00;99.90;;;;;;5016938;28;20091;-74
2023/04/01 00:36:24;;;;;;;6.20;5.80;;;9.00;99.90;;;;;;5016892;28;20087;-73
2023/04/01 00:38:51;;;;;;;5.85;5.50;;;9.00;99.90;;;;;;5023687;28;20212;-73
2023/04/01 00:41:19;;;;;;;6.10;5.70;;;9.00;99.90;;;;;;5017144;28;20053;-74
2023/04/01 00:43:48;;;;;;;5.88;5.60;;;8.90;99.90;;;;;;5013781;28;20033;-73
2023/04/01 00:46:15;;;;;;;6.80;6.30;;;9.00;99.90;;;;;;5012839;28;20443;-73
2023/04/01 00:48:46;;;;;;;6.32;6.03;;;9.00;99.90;;;;;;5015973;28;20052;-73
2023/04/01 00:51:18;;;;;;;7.38;7.07;;;9.00;99.90;;;;;;5016999;28;20067;-73
2023/04/01 00:53:48;;;;;;;6.45;6.07;;;9.00;99.90;;;;;;5007846;28;20045;-73
2023/04/01 00:56:22;;;;;;;8.32;7.70;;;9.10;99.90;;;;;;5015739;28;20531;-73
2023/04/01 00:58:56;;;;;;;6.90;6.50;;;9.00;99.90;;;;;;5019429;28;20053;-73
2023/04/01 01:01:24;;;;;;;6.85;6.32;;;9.00;99.90;;;;;;4995086;28;20068;-75
2023/04/01 01:03:51;;;;;;;6.32;6.03;;;9.00;99.90;;;;;;5017837;28;20103;-73
2023/04/01 01:06:38;;;;;;;9.07;8.35;;;9.00;99.90;;;;;;5021566;28;20292;-73
2023/04/01 01:09:09;;;;;;;7.10;6.60;;;9.00;99.90;;;;;;5013908;28;20463;-74
2023/04/01 01:11:56;;;;;;;7.43;6.90;;;9.00;99.90;;;;;;5012718;28;20045;-73
2023/04/01 01:14:28;;;;;;;7.93;7.32;;;9.00;99.90;;;;;;4980641;28;20185;-73
2023/04/01 01:17:04;;;;;;;7.18;6.88;;;9.00;99.90;;;;;;5011564;28;20498;-74
2023/04/01 01:19:50;;;;;;;7.50;7.00;;;9.00;99.90;;;;;;5018134;28;20129;-73
2023/04/01 01:22:35;;;;;;;;;;;9.00;99.90;;;;;;5006879;28;20168;-74
2023/04/01 01:25:16;;;;;;;8.13;7.60;;;9.00;99.90;;;;;;4996454;28;19921;-73
2023/04/01 01:27:54;;;;;;;9.18;8.68;;;9.00;99.90;;;;;;5013140;28;20067;-73
2023/04/01 01:30:38;;;;;;;7.60;7.20;;;9.00;99.90;;;;;;5010007;28;20049;-73
2023/04/01 01:33:45;;;;;;;8.40;7.90;;;9.00;99.90;;;;;;5021830;28;20591;-72
2023/04/01 01:36:14;;;;;;;8.45;8.13;;;9.00;99.90;;;;;;5028475;28;20029;-73
2023/04/01 01:38:41;;;;;;;8.40;7.97;;;9.00;99.90;;;;;;5032593;28;20057;-73
2023/04/01 01:41:10;;;;;;;9.57;9.18;;;9.00;99.90;;;;;;5030503;28;20117;-73
2023/04/01 01:43:41;;;;;;;8.95;8.55;;;9.00;99.90;;;;;;5004022;28;20050;-72
2023/04/01 01:46:17;;;;;;;8.50;8.20;;;9.00;99.90;;;;;;5014149;28;20083;-73
2023/04/01 01:48:45;;;;;;;8.02;7.63;;;9.00;99.90;;;;;;5027576;28;20123;-73
2023/04/01 01:51:12;;;;;;;7.45;7.10;;;9.00;99.90;;;;;;5007962;28;20053;-73
2023/04/01 01:53:39;;;;;;;6.15;5.85;;;8.90;99.90;;;;;;5011790;28;20045;-73
2023/04/01 01:56:07;;;;;;;5.20;4.90;;;8.80;99.90;;;;;;5019910;28;20432;-74
2023/04/01 01:58:45;;;;;;;4.65;4.40;;;8.80;99.90;;;;;;5013105;28;20077;-74
2023/04/01 02:01:24;;;;;;;4.30;4.10;;;8.80;99.90;;;;;;5013462;28;20037;-74
2023/04/01 02:03:53;;;;;;;5.55;5.03;;;8.70;99.90;;;;;;5014479;28;20516;-73
2023/04/01 02:06:23;;;;;;;6.93;6.35;;;8.70;99.90;;;;;;5013635;28;20415;-75
2023/04/01 02:09:00;;;;;;;5.45;5.03;;;8.80;99.90;;;;;;5012782;28;20049;-75
2023/04/01 02:11:33;;;;;;;5.60;5.30;;;8.70;99.90;;;;;;4996691;28;20041;-76
2023/04/01 02:14:10;;;;;;;6.50;6.20;;;8.70;99.90;;;;;;5015666;28;20064;-75
2023/04/01 02:16:57;;;;;;;4.85;4.55;;;8.70;99.90;;;;;;5014552;28;20562;-76
2023/04/01 02:19:33;;;;;;;4.30;4.00;;;8.70;99.90;;;;;;5017994;28;20110;-76
2023/04/01 02:22:02;;;;;;;5.25;4.18;;;8.60;99.90;;;;;;5017932;28;20045;-76
2023/04/01 02:24:33;;;;;;;4.72;4.50;;;8.60;99.90;;;;;;5013210;28;20052;-76
2023/04/01 02:27:00;;;;;;;3.58;3.42;;;8.60;99.90;;;;;;5014811;28;20706;-76
2023/04/01 02:29:27;;;;;;;3.20;3.10;;;8.60;99.90;;;;;;5011954;28;20142;-76
2023/04/01 02:31:55;;;;;;;3.63;3.53;;;8.60;99.90;;;;;;5014842;28;20515;-75
2023/04/01 02:34:24;;;;;;;3.70;3.40;;;8.60;99.90;;;;;;5018172;28;20299;-75
2023/04/01 02:36:51;;;;;;;3.38;3.25;;;8.60;99.90;;;;;;5001776;28;20104;-75
2023/04/01 02:39:18;;;;;;;3.88;3.78;;;8.60;99.90;;;;;;5020468;28;20053;-75
2023/04/01 02:41:46;;;;;;;2.80;2.60;;;8.60;99.90;;;;;;5017399;28;20036;-75
2023/04/01 02:44:14;;;;;;;2.83;2.60;;;8.60;99.90;;;;;;5020547;28;20490;-76
2023/04/01 02:46:42;;;;;;;2.80;2.70;;;8.60;99.90;;;;;;5026122;28;20084;-76
2023/04/01 02:49:09;;;;;;;2.97;2.88;;;8.60;99.90;;;;;;5036880;28;20512;-76
2023/04/01 02:51:36;;;;;;;3.42;3.00;;;8.50;99.90;;;;;;5001813;28;20045;-75
2023/04/01 02:54:03;;;;;;;2.60;2.50;;;8.50;99.90;;;;;;5026695;28;20392;-75
2023/04/01 02:56:30;;;;;;;3.15;2.90;;;8.50;99.90;;;;;;5012728;28;20223;-76
2023/04/01 02:58:56;;;;;;;3.33;3.13;;;8.60;99.90;;;;;;5032858;28;20051;-75
2023/04/01 03:01:23;;;;;;;2.20;2.10;;;8.50;99.90;;;;;;5020544;28;20056;-76
2023/04/01 03:03:50;;;;;;;2.72;2.63;;;8.50;99.90;;;;;;5002622;28;20944;-75
2023/04/01 03:06:17;;;;;;;2.83;2.63;;;8.50;99.90;;;;;;5025261;28;20037;-74
2023/04/01 03:08:44;;;;;;;2.55;2.45;;;8.50;99.90;;;;;;5011571;28;20041;-74
2023/04/01 03:11:11;;;;;;;2.60;2.50;;;8.50;99.90;;;;;;5027853;28;20045;-74
2023/04/01 03:13:38;;;;;;;3.45;2.60;;;8.50;99.90;;;;;;5011768;28;20053;-74
2023/04/01 03:16:05;;;;;;;2.75;2.55;;;8.50;99.90;;;;;;5023195;28;20584;-75
2023/04/01 03:18:32;;;;;;;3.58;2.50;;;8.50;99.90;;;;;;5024948;28;20416;-74
2023/04/01 03:21:20;;;;;;;3.53;3.00;;;8.50;99.90;;;;;;5024512;28;20460;-74
2023/04/01 03:23:47;;;;;;;3.17;3.00;;;8.50;99.90;;;;;;5018319;28;20997;-75
2023/04/01 03:26:14;;;;;;;2.42;2.33;;;8.50;99.90;;;;;;5023482;28;20484;-75
2023/04/01 03:28:43;;;;;;;2.30;2.20;;;8.50;99.90;;;;;;5031339;28;20525;-75
2023/04/01 03:31:10;;;;;;;2.33;2.10;;;8.50;99.90;;;;;;5021494;28;20045;-75
2023/04/01 03:33:43;;;;;;;3.33;2.20;;;8.50;99.90;;;;;;5021320;28;20042;-75
2023/04/01 03:36:12;;;;;;;2.58;2.47;;;8.50;99.90;;;;;;5015731;28;20134;-74
2023/04/01 03:38:40;;;;;;;2.17;1.95;;;8.50;99.90;;;;;;5020981;28;20041;-75
2023/04/01 03:41:11;;;;;;;2.30;2.20;;;8.50;99.90;;;;;;5018458;28;20067;-74
2023/04/01 03:43:37;;;;;;;3.00;2.80;;;8.50;99.90;;;;;;5017472;28;20183;-76
2023/04/01 03:46:04;;;;;;;2.47;2.28;;;8.50;99.90;;;;;;4998813;28;20135;-76
2023/04/01 03:48:31;;;;;;;2.47;2.38;;;8.50;99.90;;;;;;5017805;28;20029;-76
2023/04/01 03:50:59;;;;;;;2.58;2.47;;;8.50;99.90;;;;;;5015388;28;20049;-76
2023/04/01 03:53:26;;;;;;;2.38;2.25;;;8.50;99.90;;;;;;4997637;28;21203;-76
2023/04/01 03:55:57;;;;;;;2.50;2.30;;;8.50;99.90;;;;;;5010394;28;20030;-76
2023/04/01 03:58:23;;;;;;;2.90;2.72;;;8.50;99.90;;;;;;5006245;28;20046;-76
2023/04/01 04:00:51;;;;;;;4.75;2.38;;;8.50;99.90;;;;;;5012222;28;20041;-76
2023/04/01 04:03:18;;;;;;;2.70;2.60;;;8.50;99.90;;;;;;5013319;28;20069;-76
2023/04/01 04:05:49;;;;;;;2.70;2.47;;;8.50;99.90;;;;;;5021633;28;20187;-75
2023/04/01 04:08:17;;;;;;;2.50;2.40;;;8.50;99.90;;;;;;5004234;28;20042;-75
2023/04/01 04:10:44;;;;;;;3.05;2.85;;;8.50;99.90;;;;;;5009493;28;20575;-75
2023/04/01 04:13:11;;;;;;;4.18;3.53;;;8.50;99.90;;;;;;5012266;28;20052;-76
2023/04/01 04:15:44;;;;;;;3.58;3.28;;;8.50;99.90;;;;;;5011982;28;20056;-75
2023/04/01 04:18:10;;;;;;;2.50;2.30;;;8.50;99.90;;;;;;5014807;28;20079;-76
2023/04/01 04:20:46;;;;;;;2.60;2.40;;;8.50;99.90;;;;;;4996178;28;20049;-76
2023/04/01 04:23:13;;;;;;;2.03;1.92;;;8.40;99.90;;;;;;5011633;28;20041;-75
2023/04/01 04:25:41;;;;;;;1.63;1.52;;;8.40;99.90;;;;;;5015206;28;20041;-75
2023/04/01 04:28:07;;;;;;;1.83;1.73;;;8.40;99.90;;;;;;5009829;28;20056;-76
2023/04/01 04:30:34;;;;;;;1.23;1.23;;;8.40;99.90;;;;;;5018209;28;20783;-76
2023/04/01 04:33:01;;;;;;;1.60;1.50;;;8.40;99.90;;;;;;5011324;28;20042;-75
2023/04/01 04:35:28;;;;;;;1.83;1.50;;;8.40;99.90;;;;;;5015187;28;20056;-76
2023/04/01 04:37:55;;;;;;;1.30;1.30;;;8.40;99.90;;;;;;5026739;28;20530;-76
2023/04/01 04:40:21;;;;;;;2.45;1.48;;;8.30;99.90;;;;;;5020856;28;20048;-75
2023/04/01 04:42:48;;;;;;;1.92;1.40;;;8.30;99.90;;;;;;5015423;28;20132;-76
2023/04/01 04:45:15;;;;;;;3.17;1.50;;;8.30;99.90;;;;;;5014538;28;20448;-75
2023/04/01 04:47:51;;;;;;;1.95;1.10;;;8.30;99.90;;;;;;5018019;28;20183;-75
2023/04/01 04:50:18;;;;;;;1.60;1.23;;;8.30;99.90;;;;;;5011687;28;20201;-75
2023/04/01 04:52:44;;;;;;;1.00;1.00;;;8.20;99.90;;;;;;5023438;28;20099;-75
2023/04/01 04:55:11;;;;;;;1.10;0.93;;;8.20;99.90;;;;;;5015938;28;20132;-76
2023/04/01 04:57:41;;;;;;;1.27;1.13;;;8.20;99.90;;;;;;5016155;28;20379;-76
2023/04/01 05:00:09;;;;;;;2.00;1.30;;;8.20;99.90;;;;;;5014681;28;20783;-76
2023/04/01 05:02:58;;;;;;;1.17;1.00;;;8.10;99.90;;;;;;5001082;28;20064;-75
2023/04/01 05:05:25;;;;;;;1.10;1.00;;;8.10;99.90;;;;;;5012743;28;20639;-75
2023/04/01 05:07:51;;;;;;;1.05;0.95;;;8.20;99.90;;;;;;4997730;28;20057;-75
2023/04/01 05:10:20;;;;;;;0.90;0.88;;;8.20;99.90;;;;;;5024089;28;20048;-75
2023/04/01 05:12:47;;;;;;;2.50;0.80;;;8.10;99.90;;;;;;5018868;28;20424;-75
2023/04/01 05:15:17;;;;;;;2.33;0.80;;;8.10;99.90;;;;;;5017246;28;20252;-75
2023/04/01 05:17:44;;;;;;;1.90;0.63;;;8.10;99.90;;;;;;5015242;28;20061;-75
2023/04/01 05:20:13;;;;;;;1.20;1.08;;;8.10;99.90;;;;;;4996271;28;20412;-75
2023/04/01 05:22:40;;;;;;;2.78;1.40;;;8.10;99.90;;;;;;5017062;28;20034;-75
2023/04/01 05:25:07;;;;;;;1.92;1.02;;;8.10;99.90;;;;;;5016351;28;20067;-76
2023/04/01 05:27:34;;;;;;;1.17;1.08;;;8.10;99.90;;;;;;5017249;28;20034;-76
2023/04/01 05:30:01;;;;;;;1.30;1.20;;;8.10;99.90;;;;;;5014210;28;20154;-75
2023/04/01 05:32:56;;;;;;;1.48;1.30;;;8.10;99.90;;;;;;5019077;28;20510;-75
2023/04/01 05:35:24;;;;;;;1.05;0.90;;;8.10;99.90;;;;;;5021353;28;20059;-76
2023/04/01 05:37:50;;;;;;;2.55;1.20;;;8.10;99.90;;;;;;5040150;22;20041;-74
2023/04/01 05:40:17;;;;;;;1.13;1.08;;;8.10;99.90;;;;;;5019749;28;20049;-73
2023/04/01 05:42:44;;;;;;;1.13;1.02;;;8.10;99.90;;;;;;5038858;28;20360;-74
2023/04/01 05:45:11;;;;;;;1.02;1.02;;;8.10;99.90;;;;;;5022150;28;20199;-74
2023/04/01 05:48:04;;;;;;;1.50;0.90;;;8.10;99.90;;;;;;5012037;28;20466;-74
2023/04/01 05:50:36;;;;;;;2.78;1.83;;;8.10;99.90;;;;;;5020476;28;20040;-72
2023/04/01 05:53:03;;;;;;;1.70;1.60;;;8.10;99.90;;;;;;5028540;28;20045;-72
2023/04/01 05:55:30;;;;;;;3.45;1.38;;;8.10;99.90;;;;;;5023920;28;20055;-73
2023/04/01 05:57:57;;;;;;;2.15;1.30;;;8.10;99.90;;;;;;5006466;28;20114;-72
2023/04/01 06:00:26;;;;;;;1.63;1.20;;;8.10;99.90;;;;;;5008856;28;20119;-73
2023/04/01 06:02:53;;;;;;;1.27;1.17;;;8.00;99.90;;;;;;5019503;28;20582;-74
2023/04/01 06:05:23;;;;;;;2.00;1.00;;;8.10;99.90;;;;;;5041915;28;20087;-74
2023/04/01 06:07:57;;;;;;;1.15;1.05;;;8.10;99.90;;;;;;5022903;28;20080;-72
2023/04/01 06:10:53;;;;;;;0.95;0.95;;;8.00;99.90;;;;;;5019314;28;20502;-73
2023/04/01 06:13:38;;;;;;;;;;;8.10;99.90;;;;;;5007087;28;20063;-74
2023/04/01 06:16:21;;;;;;;1.50;1.40;;;8.10;99.90;;;;;;5021613;28;20309;-73
2023/04/01 06:19:31;;;;;;;2.45;1.75;;;8.20;99.90;;;;;;5019810;28;20082;-75
2023/04/01 06:22:25;;;;;;;1.63;1.42;;;8.30;99.90;;;;;;4999288;28;20052;-74
2023/04/01 06:25:22;;;;;;;2.23;1.43;;;8.40;99.90;;;;;;5030681;28;20060;-74
2023/04/01 06:28:23;;;;;;;1.77;1.40;;;8.30;99.90;;;;;;5044655;28;20102;-72
2023/04/01 06:31:06;;;;;;;1.40;1.30;;;8.30;99.90;;;;;;5033811;28;20137;-74
2023/04/01 06:33:43;;;;;;;2.05;1.10;;;8.20;99.90;;;;;;5025085;28;20049;-73
2023/04/01 06:36:19;;;;;;;1.50;1.10;;;8.20;99.90;;;;;;5043135;28;20100;-73
2023/04/01 06:39:28;;;;;;;1.52;1.02;;;8.20;99.90;;;;;;5041218;28;20114;-74
2023/04/01 06:42:04;;;;;;;1.60;1.23;;;8.10;99.90;;;;;;5026250;28;20642;-74
2023/04/01 06:44:44;;;;;;;2.95;1.67;;;8.20;99.90;;;;;;5037837;28;20080;-73
2023/04/01 06:48:08;;;;;;;4.60;1.98;;;8.20;99.90;;;;;;5003001;28;20041;-74
2023/04/01 06:51:09;;;;;;;2.97;1.33;;;8.30;99.90;;;;;;5001035;28;20479;-73
2023/04/01 06:54:06;;;;;;;4.38;1.17;;;8.30;99.90;;;;;;5020141;28;20466;-73
2023/04/01 06:56:57;;;;;;;3.17;1.90;;;8.40;99.90;;;;;;5057712;28;20517;-73
2023/04/01 06:59:28;;;;;;;;;;;8.40;99.90;;;;;;5037682;28;21942;-73
2023/04/01 07:02:04;;;;;;;3.65;1.20;;;8.50;99.90;;;;;;5042744;28;20171;-73
2023/04/01 07:04:40;;;;;;;1.15;1.02;;;8.50;99.90;;;;;;5033472;28;20045;-74
2023/04/01 07:07:35;;;;;;;6.38;1.60;;;8.50;99.90;;;;;;5039471;28;20372;-71
2023/04/01 07:10:17;;;;;;;1.95;1.45;;;8.50;99.90;;;;;;5034544;28;20522;-73
2023/04/01 07:13:16;;;;;;;1.75;1.45;;;8.60;99.90;;;;;;5012698;28;20051;-72
2023/04/01 07:16:25;;;;;;;4.38;1.45;;;8.60;99.90;;;;;;5041949;28;20040;-74
2023/04/01 07:18:59;;;;;;;2.22;1.60;;;8.60;99.90;;;;;;5049336;28;20067;-74
2023/04/01 07:22:01;;;;;;;2.30;1.10;;;8.70;99.90;;;;;;5050831;28;20047;-74
2023/04/01 07:24:44;;;;;;;1.85;1.73;;;8.70;99.90;;;;;;5049741;28;20510;-71
2023/04/01 07:27:13;;;;;;;3.20;1.25;;;8.70;99.90;;;;;;5048492;28;20635;-72
2023/04/01 07:29:41;;;;;;;4.45;2.15;;;8.70;99.90;;;;;;5051538;28;20048;-72
2023/04/01 07:32:31;;;;;;;5.55;1.83;;;8.80;99.90;;;;;;5048389;28;20028;-72
2023/04/01 07:35:17;;;;;;;3.30;1.70;;;8.90;99.90;;;;;;5029793;28;20048;-73
2023/04/01 07:38:03;;;;;;;1.60;1.05;;;8.90;99.90;;;;;;5045540;28;20079;-71
2023/04/01 07:40:59;;;;;;;3.50;1.17;;;8.90;99.90;;;;;;5049027;28;20044;-72
2023/04/01 07:43:58;;;;;;;1.92;1.40;;;9.00;99.90;;;;;;5048584;28;20084;-72
2023/04/01 07:46:52;;;;;;;3.35;1.25;;;9.00;99.90;;;;;;5045304;28;20079;-73
2023/04/01 07:49:39;;;;;;;1.80;1.30;;;9.00;99.90;;;;;;5044687;28;20300;-73
2023/04/01 07:52:28;;;;;;;5.10;1.30;;;9.00;99.90;;;;;;5031109;28;20098;-71
2023/04/01 07:55:24;;;;;;;3.23;1.40;;;9.00;99.90;;;;;;5040130;28;20044;-73
2023/04/01 07:58:03;;;;;;;5.15;2.60;;;9.10;99.90;;;;;;5037310;28;20064;-72
2023/04/01 08:00:57;;;;;;;4.63;1.38;;;9.10;99.90;;;;;;5043637;28;20494;-72
2023/04/01 08:03:35;;;;;;;1.67;1.58;;;9.20;99.90;;;;;;5041157;28;20051;-71
2023/04/01 08:06:31;;;;;;;4.10;1.65;;;9.10;99.90;;;;;;5042544;28;20107;-72
2023/04/01 08:09:25;;;;;;;3.80;1.25;;;9.20;99.90;;;;;;5038363;28;20143;-71
2023/04/01 08:13:02;;;;;;;4.18;1.10;;;9.10;99.90;;;;;;4975578;28;20908;-72
2023/04/01 08:16:42;;;;;;;2.60;1.10;;;9.10;99.90;;;;;;5058492;28;20071;-73
2023/04/01 08:19:44;;;;;;;1.55;1.20;;;9.10;99.90;;;;;;5005511;28;20050;-72
2023/04/01 08:22:19;;;;;;;1.67;1.50;;;9.10;99.90;;;;;;5046176;28;20086;-72
2023/04/01 08:24:48;;;;;;;3.17;1.35;;;9.20;99.90;;;;;;5055284;28;20379;-73
2023/04/01 08:27:37;;;;;;;4.55;1.50;;;9.20;99.90;;;;;;5057203;28;20481;-72
2023/04/01 08:30:22;;;;;;;3.60;1.60;;;9.20;99.90;;;;;;5033302;28;20064;-71
2023/04/01 08:32:53;;;;;;;;;;;9.20;99.90;;;;;;5048646;28;20073;-72
2023/04/01 08:35:33;;;;;;;2.47;1.40;;;9.20;99.90;;;;;;5046383;28;20111;-73
2023/04/01 08:38:17;;;;;;;3.10;1.40;;;9.20;99.90;;;;;;5040561;28;20355;-73
2023/04/01 08:40:56;;;;;;;3.85;1.70;;;9.30;99.90;;;;;;5030706;28;20139;-71
2023/04/01 08:43:33;;;;;;;2.72;1.92;;;9.40;99.90;;;;;;5029089;28;20068;-72
2023/04/01 08:46:00;;;;;;;;;;;9.30;99.90;;;;;;5041958;28;20072;-73
2023/04/01 08:49:14;;;;;;;2.22;1.38;;;9.30;99.90;;;;;;5055087;28;20420;-73
2023/04/01 08:52:07;;;;;;;2.10;1.60;;;9.40;99.90;;;;;;4992160;28;20038;-73
2023/04/01 08:54:40;;;;;;;2.67;1.70;;;9.50;99.90;;;;;;4971012;28;20089;-72
2023/04/01 08:57:45;;;;;;;3.25;1.40;;;9.50;99.90;;;;;;5020507;28;20418;-72
2023/04/01 09:00:55;;;;;;;5.90;1.48;;;9.50;99.90;;;;;;4980796;28;20081;-71
2023/04/01 09:03:36;;;;;;;2.65;1.52;;;9.60;99.90;;;;;;4975908;28;20600;-72
2023/04/01 09:06:19;;;;;;;3.35;2.00;;;9.70;99.90;;;;;;5020377;28;20449;-72
2023/04/01 09:08:59;;;;;;;2.88;2.00;;;9.70;99.90;;;;;;5032756;28;20043;-72
2023/04/01 09:11:40;;;;;;;3.53;2.13;;;9.70;99.90;;;;;;5045493;28;20371;-73
2023/04/01 09:14:41;;;;;;;12.32;7.65;;;9.70;99.90;;;;;;5037499;28;20464;-73
2023/04/01 09:17:41;;;;;;;;;;;9.80;99.90;;;;;;5034983;28;20068;-72
2023/04/01 09:20:26;;;;;;;2.70;2.50;;;9.70;99.90;;;;;;5036999;28;20020;-71
2023/04/01 09:23:17;;;;;;;2.63;2.40;;;9.50;99.90;;;;;;5040288;28;20051;-73
2023/04/01 09:26:16;;;;;;;2.60;2.40;;;9.50;99.90;;;;;;5044507;28;20036;-74
2023/04/01 09:28:52;;;;;;;4.30;2.55;;;9.60;99.90;;;;;;5019930;28;20396;-72
2023/04/01 09:31:27;;;;;;;2.45;2.25;;;9.60;99.90;;;;;;5032690;28;20050;-71
2023/04/01 09:34:54;;;;;;;2.78;2.47;;;9.70;99.90;;;;;;5028947;28;20076;-73
2023/04/01 09:37:51;;;;;;;;;;;9.70;99.90;;;;;;5022507;28;20243;-72
2023/04/01 09:40:46;;;;;;;2.95;1.80;;;9.80;99.90;;;;;;5026437;28;19927;-72
2023/04/01 09:43:48;;;;;;;2.85;2.53;;;9.90;99.90;;;;;;5040302;28;20043;-73
2023/04/01 09:46:37;;;;;;;2.55;2.35;;;10.00;99.90;;;;;;5040581;28;20529;-72
2023/04/01 09:49:49;;;;;;;2.83;2.63;;;10.10;99.90;;;;;;5058529;28;20509;-72
2023/04/01 09:52:44;;;;;;;2.85;2.63;;;10.10;99.90;;;;;;5040477;28;20044;-73
2023/04/01 09:55:36;;;;;;;2.92;2.72;;;10.20;99.90;;;;;;5039456;28;20242;-71
2023/04/01 09:58:06;;;;;;;3.22;3.03;;;10.40;99.90;;;;;;5040394;28;20484;-73
2023/04/01 10:01:34;;;;;;;4.10;3.80;;;10.50;99.90;;;;;;5041960;28;20607;-71
2023/04/01 10:04:34;;;;;;;4.45;4.18;;;10.50;99.90;;;;;;5022493;28;20140;-72
2023/04/01 10:07:26;;;;;;;3.13;2.92;;;10.50;99.90;;;;;;5036036;28;20051;-73
2023/04/01 10:10:07;;;;;;;3.53;3.22;;;10.60;99.90;;;;;;5038902;28;20032;-71
2023/04/01 10:12:41;;;;;;;2.72;2.63;;;10.70;99.90;;;;;;5011256;28;20044;-73
2023/04/01 10:15:17;;;;;;;2.88;2.67;;;10.70;99.90;;;;;;5033738;28;20107;-72
2023/04/01 10:18:10;;;;;;;2.50;2.30;;;10.70;99.90;;;;;;5034063;28;20056;-73
2023/04/01 10:20:54;;;;;;;4.78;2.70;;;10.60;99.90;;;;;;5034971;28;20502;-72
2023/04/01 10:23:48;;;;;;;2.47;2.28;;;10.70;99.90;;;;;;5043832;28;20036;-72
2023/04/01 10:26:23;;;;;;;3.17;2.97;;;10.70;99.90;;;;;;5034629;28;20037;-73
2023/04/01 10:29:21;;;;;;;4.45;2.95;;;10.60;99.90;;;;;;5033885;28;20044;-72
2023/04/01 10:32:00;;;;;;;3.25;2.55;;;10.70;99.90;;;;;;5035668;28;20040;-71
2023/04/01 10:34:52;;;;;;;4.32;4.03;;;10.60;99.90;;;;;;5040607;28;20084;-73
2023/04/01 10:37:38;;;;;;;4.40;4.10;;;10.60;99.90;;;;;;5037920;28;20522;-73
2023/04/01 10:40:20;;;;;;;5.35;4.95;;;10.60;99.90;;;;;;5034253;28;20548;-73
2023/04/01 10:43:43;;;;;;;3.60;3.40;;;10.70;99.90;;;;;;5053000;28;20239;-72
2023/04/01 10:46:30;;;;;;;;;;;10.80;99.90;;;;;;5034276;28;20041;-72
2023/04/01 10:49:00;;;;;;;3.70;3.47;;;10.80;99.90;;;;;;5036822;28;20023;-73
2023/04/01 10:51:53;;;;;;;3.58;3.28;;;10.80;99.90;;;;;;5021229;28;20043;-73
2023/04/01 10:54:55;;;;;;;4.55;3.20;;;10.90;99.90;;;;;;5056581;28;20283;-73
2023/04/01 10:58:13;;;;;;;3.15;2.88;;;10.90;99.90;;;;;;5057877;28;20688;-72
2023/04/01 11:01:19;;;;;;;3.50;3.30;;;10.80;99.90;;;;;;5008744;28;20047;-72
2023/04/01 11:04:23;;;;;;;;;;;10.80;99.90;;;;;;5043896;28;20056;-72
2023/04/01 11:07:29;;;;;;;3.00;2.70;;;10.80;99.90;;;;;;5056723;28;19973;-71
2023/04/01 11:10:21;;;;;;;3.00;2.88;;;10.90;99.90;;;;;;5042295;28;20044;-72
2023/04/01 11:13:30;;;;;;;4.00;3.58;;;10.80;99.90;;;;;;5037549;28;20170;-72
2023/04/01 11:16:15;;;;;;;4.97;4.70;;;10.70;99.90;;;;;;5041403;28;20122;-72
2023/04/01 11:18:56;;;;;;;4.60;4.32;;;10.70;99.90;;;;;;5031339;28;20287;-73
2023/04/01 11:21:45;;;;;;;5.85;5.45;;;10.70;99.90;;;;;;5022292;28;20230;-73
2023/04/01 11:24:19;;;;;;;7.70;6.88;;;10.80;99.90;;;;;;5040856;28;20041;-74
2023/04/01 11:27:38;;;;;;;6.30;4.32;;;10.90;99.90;;;;;;5022927;28;20044;-73
2023/04/01 11:30:30;;;;;;;7.78;4.88;;;11.00;99.90;;;;;;5037712;28;20050;-73
2023/04/01 11:33:02;;;;;;;4.15;3.83;;;11.10;99.90;;;;;;5037552;28;20132;-72
2023/04/01 11:35:59;;;;;;;4.47;3.75;;;11.10;99.90;;;;;;5038575;28;21302;-72
2023/04/01 11:38:47;;;;;;;3.50;3.20;;;11.20;99.90;;;;;;5031904;23;20050;-73
2023/04/01 11:41:55;;;;;;;6.97;5.40;;;11.10;99.90;;;;;;5027166;28;20132;-73
2023/04/01 11:45:20;;;;;;;3.45;3.20;;;11.00;99.90;;;;;;5043365;28;20087;-73
2023/04/01 11:48:25;;;;;;;2.70;2.60;;;11.10;99.90;;;;;;5026222;28;20045;-73
2023/04/01 11:51:15;;;;;;;4.30;4.00;;;11.00;99.90;;;;;;5033240;28;20043;-74
2023/04/01 11:53:54;;;;;;;4.35;4.05;;;11.10;99.90;;;;;;5033913;28;20049;-73
2023/04/01 11:56:42;;;;;;;3.40;3.10;;;11.20;99.90;;;;;;5029355;28;20059;-73
2023/04/01 11:59:45;;;;;;;4.45;4.25;;;10.90;99.90;;;;;;5031087;28;20083;-73
2023/04/01 12:02:42;;;;;;;3.53;3.33;;;11.00;99.90;;;;;;5027709;28;20100;-73
2023/04/01 12:05:23;;;;;;;3.58;3.38;;;10.90;99.90;;;;;;5036390;28;20036;-73
2023/04/01 12:08:06;;;;;;;3.80;3.70;;;10.80;99.90;;;;;;5031226;28;20047;-73
2023/04/01 12:10:44;;;;;;;4.32;4.03;;;10.70;99.90;;;;;;5035288;28;20052;-73
2023/04/01 12:13:31;;;;;;;5.70;3.63;;;10.70;99.90;;;;;;5034458;28;20037;-73
2023/04/01 12:16:16;;;;;;;2.53;2.33;;;10.80;99.90;;;;;;5031704;28;20040;-73
2023/04/01 12:19:03;;;;;;;7.65;5.75;;;10.70;99.90;;;;;;5032805;28;20100;-73
2023/04/01 12:21:37;;;;;;;8.27;5.78;;;10.70;99.90;;;;;;5036607;28;20123;-73
2023/04/01 12:24:04;;;;;;;3.30;3.00;;;10.70;99.90;;;;;;5029037;28;20067;-74
2023/04/01 12:26:57;;;;;;;3.35;1.95;;;10.70;99.90;;;;;;5033528;28;20047;-74
2023/04/01 12:29:57;;;;;;;4.07;2.88;;;10.50;99.90;;;;;;5031382;28;20340;-74
2023/04/01 12:32:43;;;;;;;4.13;2.83;;;10.10;99.90;;;;;;5030160;28;20074;-73
2023/04/01 12:35:38;;;;;;;3.50;3.30;;;10.10;99.90;;;;;;5028566;28;20467;-73
2023/04/01 12:38:15;;;;;;;3.65;3.35;;;10.00;99.90;;;;;;5030006;28;20553;-73
2023/04/01 12:41:23;;;;;;;3.10;2.90;;;10.00;99.90;;;;;;5028653;28;20044;-73
2023/04/01 12:44:20;;;;;;;3.40;3.10;;;10.00;99.90;;;;;;5029541;28;20045;-73
2023/04/01 12:47:24;;;;;;;3.20;2.95;;;10.00;99.90;;;;;;5005108;28;20246;-73
2023/04/01 12:50:22;;;;;;;4.10;3.10;;;10.00;99.90;;;;;;5026376;28;20045;-73
2023/04/01 12:53:05;;;;;;;2.00;1.80;;;10.10;99.90;;;;;;5029714;28;20553;-73
2023/04/01 12:55:43;;;;;;;2.30;2.05;;;10.20;99.90;;;;;;5030453;28;20218;-73
2023/04/01 12:58:44;;;;;;;5.13;4.70;;;10.20;99.90;;;;;;5027843;28;20060;-73
2023/04/01 13:01:28;;;;;;;2.85;2.63;;;10.30;99.90;;;;;;5029202;28;20041;-73
2023/04/01 13:04:14;;;;;;;5.72;3.70;;;10.60;99.90;;;;;;5029731;28;20462;-73
2023/04/01 13:06:47;;;;;;;2.90;2.70;;;10.80;99.90;;;;;;5025492;28;20037;-73
2023/04/01 13:09:49;;;;;;;4.68;4.15;;;10.90;99.90;;;;;;5029888;28;20037;-73
2023/04/01 13:12:44;;;;;;;3.53;2.55;;;11.00;99.90;;;;;;5025567;28;20552;-74
2023/04/01 13:15:13;;;;;;;2.90;2.70;;;11.10;99.90;;;;;;5014674;28;20467;-73
2023/04/01 13:17:46;;;;;;;3.10;2.90;;;11.00;99.90;;;;;;5031398;28;20044;-73
2023/04/01 13:20:28;;;;;;;3.40;3.10;;;11.00;99.90;;;;;;5026051;28;20052;-73
2023/04/01 13:23:11;;;;;;;5.13;4.53;;;11.10;99.90;;;;;;5024305;28;20197;-73
2023/04/01 13:26:08;;;;;;;3.50;3.30;;;11.10;99.90;;;;;;5027393;28;20412;-73
2023/04/01 13:28:52;;;;;;;2.88;2.65;;;10.70;99.90;;;;;;5030600;28;20307;-73
2023/04/01 13:31:22;;;;;;;3.80;3.10;;;10.50;99.90;;;;;;5029597;28;20037;-73
2023/04/01 13:34:21;;;;;;;3.30;2.83;;;10.50;99.90;;;;;;5029547;28;20037;-73
2023/04/01 13:37:03;;;;;;;11.20;6.43;;;10.50;99.90;;;;;;5027638;28;20491;-73
2023/04/01 13:39:43;;;;;;;19.27;12.98;;;10.50;99.90;;;;;;5031196;28;20682;-73
2023/04/01 13:42:16;;;;;;;7.65;5.57;;;10.60;99.90;;;;;;5025333;28;20076;-73
2023/04/01 13:45:21;;;;;;;8.50;6.93;;;10.70;99.90;;;;;;5024751;28;20154;-73
2023/04/01 13:48:25;;;;;;;9.55;5.13;;;10.80;99.90;;;;;;5025938;28;20555;-73
2023/04/01 13:51:29;;;;;;;3.55;3.22;;;10.70;99.90;;;;;;5026899;28;20136;-73
2023/04/01 13:54:24;;;;;;;3.22;3.00;;;10.80;99.90;;;;;;5027268;28;20504;-73
2023/04/01 13:57:18;;;;;;;11.98;9.65;;;10.90;99.90;;;;;;5032423;28;20041;-74
2023/04/01 13:59:58;;;;;;;4.78;3.83;;;11.00;99.90;;;;;;5030265;28;20591;-74
2023/04/01 14:03:10;;;;;;;5.20;4.75;;;11.20;99.90;;;;;;5031353;28;20106;-73
2023/04/01 14:06:08;;;;;;;4.10;3.80;;;11.30;99.90;;;;;;5014593;28;20106;-74
2023/04/01 14:08:49;;;;;;;4.00;3.70;;;11.50;99.90;;;;;;5023666;28;20463;-74